Weather History for KGHW - September, 2011

Change the Weather History Date:

Saturday, September 10, 2011

  Actual Average Record
Temperature  
Mean Temperature 72 °F -  
Max Temperature 86 °F 73 °F 93 °F (1998)
Min Temperature 57 °F 48 °F 35 °F (1959)
Cooling Degree Days 6    
Growing Degree Days 22 (Base 50)    
Moisture  
Dew Point 52 °F    
Average Humidity 54    
Maximum Humidity 88    
Minimum Humidity 23    
Precipitation  
Precipitation 0.00 in - - ()
Sea Level Pressure  
Sea Level Pressure 30.08 in    
Wind  
Wind Speed 5 mph (NNW)    
Max Wind Speed 9 mph    
Max Gust Speed -    
Visibility 10 miles    
Events      
Averages and records for this station are not official NWS values.
T = Trace of Precipitation, MM = Missing Value Source: NWS Daily Summary

Daily Weather History Graph

Daily Weather History Graph

Search for Another Location

Airport or City:

Trip Planner

Search our weather history database for the weather conditions in past years. The results will help you decide how hot, cold, wet, or windy it might be!

Date:

Astronomy

Sep. 10, 2011 Rise Set
Actual Time 6:53 AM CDT 7:42 PM CDT
Civil Twilight 6:23 AM CDT 8:12 PM CDT
Nautical Twilight 5:47 AM CDT 8:48 PM CDT
Astronomical Twilight 5:09 AM CDT 9:25 PM CDT
Moon 6:38 PM CDT (9/10) 5:11 AM CDT (9/10)
Length of Visible Light 13h 49m
Length of Day
12h 49m
Waxing Gibbous, 97% of the Moon is Illuminated
Sep 10
Waxing Gibbous
Sep 12
Full
Sep 20
Last Quarter
Sep 27
New
Oct 3
First Quarter

Hourly Weather History & Observations

Time (CDT) Temp. Heat Index Dew Point Humidity Pressure Visibility Wind Dir Wind Speed Gust Speed Precip Events Conditions
12:14 AM 64.4 °F - 53.6 °F 68% 30.09 in 10.0 mi North 5.8 mph - N/A   Clear
12:34 AM 64.4 °F - 53.6 °F 68% 30.10 in 10.0 mi North 6.9 mph - N/A   Clear
12:53 AM 64.4 °F - 53.6 °F 68% 30.10 in 10.0 mi North 6.9 mph - N/A   Clear
1:13 AM 64.4 °F - 53.6 °F 68% 30.09 in 10.0 mi North 6.9 mph - N/A   Clear
1:34 AM 64.4 °F - 53.6 °F 68% 30.10 in 10.0 mi North 5.8 mph - N/A   Clear
1:54 AM 64.4 °F - 51.8 °F 64% 30.09 in 10.0 mi North 6.9 mph - N/A   Clear
2:13 AM 64.4 °F - 51.8 °F 64% 30.09 in 10.0 mi North 6.9 mph - N/A   Clear
2:33 AM 62.6 °F - 51.8 °F 68% 30.09 in 10.0 mi North 6.9 mph - N/A   Clear
2:54 AM 62.6 °F - 51.8 °F 68% 30.09 in 10.0 mi North 6.9 mph - N/A   Clear
3:14 AM 62.6 °F - 51.8 °F 68% 30.09 in 10.0 mi North 8.1 mph - N/A   Clear
3:33 AM 62.6 °F - 51.8 °F 68% 30.09 in 10.0 mi North 5.8 mph - N/A   Clear
4:14 AM 60.8 °F - 53.6 °F 77% 30.09 in 10.0 mi North 5.8 mph - N/A   Clear
4:34 AM 60.8 °F - 53.6 °F 77% 30.09 in 10.0 mi North 5.8 mph - N/A   Clear
4:54 AM 60.8 °F - 51.8 °F 72% 30.09 in 10.0 mi North 5.8 mph - N/A   Clear
5:14 AM 60.8 °F - 51.8 °F 72% 30.09 in 10.0 mi North 5.8 mph - N/A   Clear
5:34 AM 60.8 °F - 51.8 °F 72% 30.09 in 10.0 mi North 5.8 mph - N/A   Clear
5:53 AM 59.0 °F - 51.8 °F 77% 30.09 in 10.0 mi North 5.8 mph - N/A   Clear
6:14 AM 57.2 °F - 51.8 °F 82% 30.10 in 10.0 mi NNE 4.6 mph - N/A   Clear
6:34 AM 57.2 °F - 51.8 °F 82% 30.09 in 10.0 mi NNE 6.9 mph - N/A   Clear
7:13 AM 57.2 °F - 53.6 °F 88% 30.10 in 10.0 mi North 6.9 mph - N/A   Clear
7:34 AM 59.0 °F - 53.6 °F 82% 30.10 in 10.0 mi NNE 5.8 mph - N/A   Clear
7:54 AM 60.8 °F - 53.6 °F 77% 30.11 in 10.0 mi North 5.8 mph - N/A   Clear
8:14 AM 62.6 °F - 55.4 °F 77% 30.11 in 10.0 mi North 5.8 mph - N/A   Clear
8:33 AM 64.4 °F - 55.4 °F 73% 30.11 in 10.0 mi North 3.5 mph - N/A   Clear
8:54 AM 66.2 °F - 57.2 °F 73% 30.12 in 10.0 mi NNE 3.5 mph - N/A   Clear
9:14 AM 69.8 °F - 57.2 °F 64% 30.11 in 10.0 mi NE 3.5 mph - N/A   Clear
9:34 AM 71.6 °F - 57.2 °F 60% 30.11 in 10.0 mi NNE 3.5 mph - N/A   Clear
9:53 AM 73.4 °F - 55.4 °F 53% 30.12 in 10.0 mi ENE 3.5 mph - N/A   Clear
10:13 AM 75.2 °F - 55.4 °F 50% 30.12 in 10.0 mi Calm Calm - N/A   Clear
10:34 AM 77.0 °F - 57.2 °F 50% 30.12 in 10.0 mi Calm Calm - N/A   Clear
11:14 AM 80.6 °F 80.3 °F 53.6 °F 39% 30.12 in 10.0 mi Calm Calm - N/A   Clear
11:34 AM 80.6 °F - 51.8 °F 37% 30.12 in 10.0 mi Calm Calm - N/A   Clear
11:54 AM 82.4 °F 81.7 °F 55.4 °F 39% 30.11 in 10.0 mi NW 3.5 mph - N/A   Clear
12:14 PM 82.4 °F 81.7 °F 55.4 °F 39% 30.11 in 10.0 mi Calm Calm - N/A   Clear
12:34 PM 82.4 °F 81.7 °F 55.4 °F 39% 30.10 in 10.0 mi WSW 5.8 mph - N/A   Clear
12:53 PM 84.2 °F 83.0 °F 55.4 °F 37% 30.10 in 10.0 mi West 3.5 mph - N/A   Clear
1:13 PM 82.4 °F 81.4 °F 53.6 °F 37% 30.09 in 10.0 mi NNE 3.5 mph - N/A   Clear
1:34 PM 86.0 °F - 48.2 °F 27% 30.09 in 10.0 mi WNW 5.8 mph - N/A   Clear
1:54 PM 84.2 °F - 48.2 °F 29% 30.09 in 10.0 mi NNW 4.6 mph - N/A   Clear
2:14 PM 86.0 °F - 48.2 °F 27% 30.09 in 10.0 mi West 4.6 mph - N/A   Clear
2:34 PM 86.0 °F - 46.4 °F 25% 30.08 in 10.0 mi NNW 5.8 mph - N/A   Clear
3:14 PM 86.0 °F - 46.4 °F 25% 30.07 in 10.0 mi West 5.8 mph - N/A   Clear
3:33 PM 86.0 °F - 46.4 °F 25% 30.07 in 10.0 mi NW 8.1 mph - N/A   Clear
3:54 PM 84.2 °F - 46.4 °F 27% 30.06 in 10.0 mi WNW 5.8 mph - N/A   Clear
4:13 PM 86.0 °F - 44.6 °F 23% 30.06 in 10.0 mi WNW 8.1 mph - N/A   Clear
4:33 PM 86.0 °F - 44.6 °F 23% 30.06 in 10.0 mi NW 9.2 mph - N/A   Clear
4:53 PM 84.2 °F - 44.6 °F 25% 30.06 in 10.0 mi WNW 5.8 mph - N/A   Clear
5:14 PM 82.4 °F - 46.4 °F 28% 30.05 in 10.0 mi NW 4.6 mph - N/A   Clear
5:34 PM 82.4 °F - 48.2 °F 30% 30.05 in 10.0 mi NW 4.6 mph - N/A   Clear
5:53 PM 82.4 °F - 48.2 °F 30% 30.05 in 10.0 mi NW 5.8 mph - N/A   Clear
6:14 PM 80.6 °F - 51.8 °F 37% 30.05 in 10.0 mi NW 3.5 mph - N/A   Clear
6:33 PM 80.6 °F - 51.8 °F 37% 30.04 in 10.0 mi NW 3.5 mph - N/A   Clear
6:54 PM 78.8 °F - 53.6 °F 42% 30.04 in 10.0 mi Calm Calm - N/A   Clear
7:14 PM 77.0 °F - 53.6 °F 44% 30.04 in 10.0 mi Calm Calm - N/A   Clear
7:34 PM 75.2 °F - 53.6 °F 47% 30.04 in 10.0 mi Calm Calm - N/A   Clear
7:53 PM 75.2 °F - 53.6 °F 47% 30.03 in 10.0 mi Calm Calm - N/A   Clear
8:13 PM 71.6 °F - 55.4 °F 57% 30.03 in 10.0 mi Calm Calm - N/A   Clear
8:33 PM 71.6 °F - 55.4 °F 57% 30.04 in 10.0 mi Calm Calm - N/A   Clear
8:54 PM 71.6 °F - 55.4 °F 57% 30.04 in 10.0 mi Calm Calm - N/A   Clear
9:13 PM 69.8 °F - 55.4 °F 60% 30.04 in 10.0 mi Calm Calm - N/A   Clear
9:34 PM 69.8 °F - 53.6 °F 56% 30.04 in 10.0 mi Calm Calm - N/A   Clear
9:54 PM 66.2 °F - 55.4 °F 68% 30.04 in 10.0 mi West 4.6 mph - N/A   Clear
10:14 PM 64.4 °F - 55.4 °F 73% 30.04 in 10.0 mi WSW 5.8 mph - N/A   Clear
10:34 PM 64.4 °F - 57.2 °F 77% 30.04 in 10.0 mi West 6.9 mph - N/A   Clear
10:53 PM 66.2 °F - 55.4 °F 68% 30.04 in 10.0 mi West 5.8 mph - N/A   Clear
11:14 PM 66.2 °F - 55.4 °F 68% 30.04 in 10.0 mi West 4.6 mph - N/A   Clear
11:34 PM 66.2 °F - 55.4 °F 68% 30.03 in 10.0 mi West 3.5 mph - N/A   Clear
11:54 PM 66.2 °F - 55.4 °F 68% 30.03 in 10.0 mi West 4.6 mph - N/A   Clear